sensor_id;sensor_type;location;lat;lon;timestamp;P1;durP1;ratioP1;P2;durP2;ratioP2
23171;SDS011;11754;42.664;23.594;2023-04-05T00:01:12;16.67;;;12.68;;
23171;SDS011;11754;42.664;23.594;2023-04-05T00:03:37;21.38;;;13.75;;
23171;SDS011;11754;42.664;23.594;2023-04-05T00:06:04;18.65;;;13.68;;
23171;SDS011;11754;42.664;23.594;2023-04-05T00:08:30;20.48;;;13.55;;
23171;SDS011;11754;42.664;23.594;2023-04-05T00:10:56;17.48;;;13.60;;
23171;SDS011;11754;42.664;23.594;2023-04-05T00:13:21;16.30;;;12.57;;
23171;SDS011;11754;42.664;23.594;2023-04-05T00:15:48;19.17;;;13.50;;
23171;SDS011;11754;42.664;23.594;2023-04-05T00:18:13;18.00;;;13.55;;
23171;SDS011;11754;42.664;23.594;2023-04-05T00:20:49;18.33;;;13.25;;
23171;SDS011;11754;42.664;23.594;2023-04-05T00:23:15;14.38;;;11.65;;
23171;SDS011;11754;42.664;23.594;2023-04-05T00:25:42;16.85;;;13.25;;
23171;SDS011;11754;42.664;23.594;2023-04-05T00:28:08;15.90;;;12.45;;
23171;SDS011;11754;42.664;23.594;2023-04-05T00:30:34;14.30;;;11.43;;
23171;SDS011;11754;42.664;23.594;2023-04-05T00:33:00;15.20;;;11.65;;
23171;SDS011;11754;42.664;23.594;2023-04-05T00:35:28;15.02;;;11.43;;
23171;SDS011;11754;42.664;23.594;2023-04-05T00:37:54;16.77;;;13.00;;
23171;SDS011;11754;42.664;23.594;2023-04-05T00:40:21;17.05;;;12.45;;
23171;SDS011;11754;42.664;23.594;2023-04-05T00:42:46;15.90;;;11.82;;
23171;SDS011;11754;42.664;23.594;2023-04-05T00:45:12;16.08;;;10.95;;
23171;SDS011;11754;42.664;23.594;2023-04-05T00:47:38;14.98;;;11.35;;
23171;SDS011;11754;42.664;23.594;2023-04-05T00:50:05;14.85;;;11.07;;
23171;SDS011;11754;42.664;23.594;2023-04-05T00:52:32;16.80;;;11.32;;
23171;SDS011;11754;42.664;23.594;2023-04-05T00:54:59;14.55;;;10.63;;
23171;SDS011;11754;42.664;23.594;2023-04-05T00:57:25;15.32;;;11.02;;
23171;SDS011;11754;42.664;23.594;2023-04-05T00:59:50;16.08;;;9.90;;
23171;SDS011;11754;42.664;23.594;2023-04-05T01:02:17;15.73;;;11.98;;
23171;SDS011;11754;42.664;23.594;2023-04-05T01:04:53;15.65;;;10.38;;
23171;SDS011;11754;42.664;23.594;2023-04-05T01:10:17;12.43;;;9.63;;
23171;SDS011;11754;42.664;23.594;2023-04-05T01:12:46;14.00;;;10.35;;
23171;SDS011;11754;42.664;23.594;2023-04-05T01:15:14;13.45;;;9.48;;
23171;SDS011;11754;42.664;23.594;2023-04-05T01:17:40;12.95;;;9.43;;
23171;SDS011;11754;42.664;23.594;2023-04-05T01:20:09;15.02;;;10.30;;
23171;SDS011;11754;42.664;23.594;2023-04-05T01:22:46;13.32;;;10.05;;
23171;SDS011;11754;42.664;23.594;2023-04-05T01:30:31;12.52;;;9.70;;
23171;SDS011;11754;42.664;23.594;2023-04-05T01:38:13;12.52;;;10.23;;
23171;SDS011;11754;42.664;23.594;2023-04-05T01:40:42;16.25;;;11.15;;
23171;SDS011;11754;42.664;23.594;2023-04-05T01:43:17;12.52;;;10.02;;
23171;SDS011;11754;42.664;23.594;2023-04-05T01:45:42;12.43;;;9.90;;
23171;SDS011;11754;42.664;23.594;2023-04-05T01:48:09;11.38;;;9.00;;
23171;SDS011;11754;42.664;23.594;2023-04-05T01:50:35;11.40;;;9.30;;
23171;SDS011;11754;42.664;23.594;2023-04-05T01:53:00;12.50;;;9.10;;
23171;SDS011;11754;42.664;23.594;2023-04-05T01:55:26;11.85;;;8.95;;
23171;SDS011;11754;42.664;23.594;2023-04-05T01:57:53;12.82;;;9.50;;
23171;SDS011;11754;42.664;23.594;2023-04-05T02:00:22;17.15;;;9.93;;
23171;SDS011;11754;42.664;23.594;2023-04-05T02:02:47;10.48;;;8.35;;
23171;SDS011;11754;42.664;23.594;2023-04-05T02:05:13;12.27;;;9.52;;
23171;SDS011;11754;42.664;23.594;2023-04-05T02:07:38;11.38;;;8.52;;
23171;SDS011;11754;42.664;23.594;2023-04-05T02:10:04;11.80;;;9.05;;
23171;SDS011;11754;42.664;23.594;2023-04-05T02:12:30;10.23;;;7.88;;
23171;SDS011;11754;42.664;23.594;2023-04-05T02:14:55;10.90;;;8.40;;
23171;SDS011;11754;42.664;23.594;2023-04-05T02:17:22;12.00;;;8.27;;
23171;SDS011;11754;42.664;23.594;2023-04-05T02:19:48;11.90;;;8.48;;
23171;SDS011;11754;42.664;23.594;2023-04-05T02:22:13;11.02;;;7.88;;
23171;SDS011;11754;42.664;23.594;2023-04-05T02:24:39;10.30;;;8.57;;
23171;SDS011;11754;42.664;23.594;2023-04-05T02:27:05;10.70;;;8.32;;
23171;SDS011;11754;42.664;23.594;2023-04-05T02:29:31;11.00;;;8.50;;
23171;SDS011;11754;42.664;23.594;2023-04-05T02:31:58;11.32;;;8.57;;
23171;SDS011;11754;42.664;23.594;2023-04-05T02:34:24;11.02;;;8.63;;
23171;SDS011;11754;42.664;23.594;2023-04-05T02:36:50;10.80;;;8.45;;
23171;SDS011;11754;42.664;23.594;2023-04-05T02:39:15;10.45;;;8.27;;
23171;SDS011;11754;42.664;23.594;2023-04-05T02:41:41;10.93;;;8.35;;
23171;SDS011;11754;42.664;23.594;2023-04-05T02:44:06;11.43;;;8.40;;
23171;SDS011;11754;42.664;23.594;2023-04-05T02:46:31;10.48;;;8.40;;
23171;SDS011;11754;42.664;23.594;2023-04-05T02:48:57;9.50;;;7.80;;
23171;SDS011;11754;42.664;23.594;2023-04-05T02:51:22;9.25;;;7.72;;
23171;SDS011;11754;42.664;23.594;2023-04-05T02:53:48;9.70;;;7.75;;
23171;SDS011;11754;42.664;23.594;2023-04-05T02:56:13;10.65;;;8.20;;
23171;SDS011;11754;42.664;23.594;2023-04-05T02:58:39;9.95;;;7.47;;
23171;SDS011;11754;42.664;23.594;2023-04-05T03:01:05;10.75;;;8.20;;
23171;SDS011;11754;42.664;23.594;2023-04-05T03:03:32;9.23;;;7.47;;
23171;SDS011;11754;42.664;23.594;2023-04-05T03:05:59;10.18;;;8.27;;
23171;SDS011;11754;42.664;23.594;2023-04-05T03:08:34;8.85;;;7.43;;
23171;SDS011;11754;42.664;23.594;2023-04-05T03:11:09;12.85;;;7.55;;
23171;SDS011;11754;42.664;23.594;2023-04-05T03:13:35;8.52;;;7.20;;
23171;SDS011;11754;42.664;23.594;2023-04-05T03:16:03;9.30;;;7.22;;
23171;SDS011;11754;42.664;23.594;2023-04-05T03:18:29;7.45;;;6.15;;
23171;SDS011;11754;42.664;23.594;2023-04-05T03:20:55;8.00;;;6.68;;
23171;SDS011;11754;42.664;23.594;2023-04-05T03:23:22;8.73;;;6.88;;
23171;SDS011;11754;42.664;23.594;2023-04-05T03:26:04;8.38;;;6.18;;
23171;SDS011;11754;42.664;23.594;2023-04-05T03:28:30;14.85;;;6.43;;
23171;SDS011;11754;42.664;23.594;2023-04-05T03:30:59;6.88;;;5.28;;
23171;SDS011;11754;42.664;23.594;2023-04-05T03:33:24;6.35;;;5.35;;
23171;SDS011;11754;42.664;23.594;2023-04-05T03:35:50;9.38;;;6.05;;
23171;SDS011;11754;42.664;23.594;2023-04-05T03:38:15;8.30;;;6.25;;
23171;SDS011;11754;42.664;23.594;2023-04-05T03:40:41;7.70;;;5.75;;
23171;SDS011;11754;42.664;23.594;2023-04-05T03:43:07;7.68;;;5.43;;
23171;SDS011;11754;42.664;23.594;2023-04-05T03:45:32;6.95;;;6.00;;
23171;SDS011;11754;42.664;23.594;2023-04-05T03:47:58;7.90;;;5.63;;
23171;SDS011;11754;42.664;23.594;2023-04-05T03:50:24;7.72;;;6.07;;
23171;SDS011;11754;42.664;23.594;2023-04-05T03:52:50;6.57;;;5.55;;
23171;SDS011;11754;42.664;23.594;2023-04-05T03:55:16;6.78;;;5.47;;
23171;SDS011;11754;42.664;23.594;2023-04-05T03:57:41;6.82;;;5.25;;
23171;SDS011;11754;42.664;23.594;2023-04-05T04:00:08;10.38;;;6.00;;
23171;SDS011;11754;42.664;23.594;2023-04-05T04:02:45;6.53;;;5.22;;
23171;SDS011;11754;42.664;23.594;2023-04-05T04:05:11;6.47;;;5.35;;
23171;SDS011;11754;42.664;23.594;2023-04-05T04:07:39;6.78;;;5.47;;
23171;SDS011;11754;42.664;23.594;2023-04-05T04:10:06;5.85;;;5.25;;
23171;SDS011;11754;42.664;23.594;2023-04-05T04:12:32;7.47;;;5.28;;
23171;SDS011;11754;42.664;23.594;2023-04-05T04:14:57;6.55;;;5.88;;
23171;SDS011;11754;42.664;23.594;2023-04-05T04:17:30;7.20;;;6.10;;
23171;SDS011;11754;42.664;23.594;2023-04-05T04:19:57;7.90;;;6.82;;
23171;SDS011;11754;42.664;23.594;2023-04-05T04:22:23;8.40;;;6.78;;
23171;SDS011;11754;42.664;23.594;2023-04-05T04:24:53;7.60;;;6.18;;
23171;SDS011;11754;42.664;23.594;2023-04-05T04:27:19;7.07;;;6.32;;
23171;SDS011;11754;42.664;23.594;2023-04-05T04:29:48;8.15;;;5.90;;
23171;SDS011;11754;42.664;23.594;2023-04-05T04:32:14;6.88;;;5.70;;
23171;SDS011;11754;42.664;23.594;2023-04-05T04:34:40;10.20;;;8.32;;
23171;SDS011;11754;42.664;23.594;2023-04-05T04:37:17;8.27;;;6.88;;
23171;SDS011;11754;42.664;23.594;2023-04-05T04:39:46;9.18;;;6.63;;
23171;SDS011;11754;42.664;23.594;2023-04-05T04:42:13;8.43;;;6.97;;
23171;SDS011;11754;42.664;23.594;2023-04-05T04:44:52;11.03;;;8.27;;
23171;SDS011;11754;42.664;23.594;2023-04-05T04:47:19;9.25;;;7.30;;
23171;SDS011;11754;42.664;23.594;2023-04-05T04:49:45;8.38;;;7.32;;
23171;SDS011;11754;42.664;23.594;2023-04-05T04:52:11;7.80;;;6.45;;
23171;SDS011;11754;42.664;23.594;2023-04-05T04:54:36;7.57;;;6.22;;
23171;SDS011;11754;42.664;23.594;2023-04-05T04:57:02;8.65;;;7.00;;
23171;SDS011;11754;42.664;23.594;2023-04-05T04:59:27;7.85;;;6.20;;
23171;SDS011;11754;42.664;23.594;2023-04-05T05:01:53;7.13;;;5.90;;
23171;SDS011;11754;42.664;23.594;2023-04-05T05:04:18;7.32;;;5.60;;
23171;SDS011;11754;42.664;23.594;2023-04-05T05:06:44;6.35;;;5.70;;
23171;SDS011;11754;42.664;23.594;2023-04-05T05:09:09;8.65;;;6.30;;
23171;SDS011;11754;42.664;23.594;2023-04-05T05:11:35;7.95;;;6.15;;
23171;SDS011;11754;42.664;23.594;2023-04-05T05:14:01;7.88;;;6.72;;
23171;SDS011;11754;42.664;23.594;2023-04-05T05:16:26;10.02;;;6.82;;
23171;SDS011;11754;42.664;23.594;2023-04-05T05:18:52;7.82;;;6.35;;
23171;SDS011;11754;42.664;23.594;2023-04-05T05:21:18;8.20;;;6.47;;
23171;SDS011;11754;42.664;23.594;2023-04-05T05:23:44;8.50;;;6.63;;
23171;SDS011;11754;42.664;23.594;2023-04-05T05:26:10;8.13;;;6.50;;
23171;SDS011;11754;42.664;23.594;2023-04-05T05:28:37;6.95;;;5.45;;
23171;SDS011;11754;42.664;23.594;2023-04-05T05:31:03;6.43;;;5.15;;
23171;SDS011;11754;42.664;23.594;2023-04-05T05:33:29;6.32;;;5.18;;
23171;SDS011;11754;42.664;23.594;2023-04-05T05:35:54;5.80;;;4.50;;
23171;SDS011;11754;42.664;23.594;2023-04-05T05:38:19;6.05;;;4.55;;
23171;SDS011;11754;42.664;23.594;2023-04-05T05:40:46;6.15;;;4.32;;
23171;SDS011;11754;42.664;23.594;2023-04-05T05:43:11;6.25;;;3.88;;
23171;SDS011;11754;42.664;23.594;2023-04-05T05:45:37;5.13;;;3.53;;
23171;SDS011;11754;42.664;23.594;2023-04-05T05:48:02;7.63;;;3.88;;
23171;SDS011;11754;42.664;23.594;2023-04-05T05:50:28;5.70;;;4.30;;
23171;SDS011;11754;42.664;23.594;2023-04-05T05:52:57;4.90;;;3.83;;
23171;SDS011;11754;42.664;23.594;2023-04-05T05:55:23;5.88;;;4.55;;
23171;SDS011;11754;42.664;23.594;2023-04-05T05:57:48;6.55;;;4.25;;
23171;SDS011;11754;42.664;23.594;2023-04-05T06:00:14;6.80;;;4.57;;
23171;SDS011;11754;42.664;23.594;2023-04-05T06:02:40;8.05;;;4.18;;
23171;SDS011;11754;42.664;23.594;2023-04-05T06:05:05;11.07;;;4.45;;
23171;SDS011;11754;42.664;23.594;2023-04-05T06:07:34;5.65;;;4.05;;
23171;SDS011;11754;42.664;23.594;2023-04-05T06:10:00;6.07;;;4.35;;
23171;SDS011;11754;42.664;23.594;2023-04-05T06:12:26;9.23;;;5.13;;
23171;SDS011;11754;42.664;23.594;2023-04-05T06:14:51;9.57;;;5.22;;
23171;SDS011;11754;42.664;23.594;2023-04-05T06:17:17;3.83;;;2.72;;
23171;SDS011;11754;42.664;23.594;2023-04-05T06:19:42;4.57;;;3.42;;
23171;SDS011;11754;42.664;23.594;2023-04-05T06:22:08;5.97;;;4.18;;
23171;SDS011;11754;42.664;23.594;2023-04-05T06:24:33;7.75;;;4.10;;
23171;SDS011;11754;42.664;23.594;2023-04-05T06:26:59;4.28;;;3.25;;
23171;SDS011;11754;42.664;23.594;2023-04-05T06:29:25;5.30;;;2.85;;
23171;SDS011;11754;42.664;23.594;2023-04-05T06:31:51;7.32;;;3.38;;
23171;SDS011;11754;42.664;23.594;2023-04-05T06:34:17;4.53;;;3.05;;
23171;SDS011;11754;42.664;23.594;2023-04-05T06:36:42;4.57;;;2.42;;
23171;SDS011;11754;42.664;23.594;2023-04-05T06:39:07;3.60;;;2.58;;
23171;SDS011;11754;42.664;23.594;2023-04-05T06:41:33;4.13;;;2.47;;
23171;SDS011;11754;42.664;23.594;2023-04-05T06:43:58;6.00;;;2.28;;
23171;SDS011;11754;42.664;23.594;2023-04-05T06:46:24;3.40;;;1.65;;
23171;SDS011;11754;42.664;23.594;2023-04-05T06:48:52;2.92;;;2.00;;
23171;SDS011;11754;42.664;23.594;2023-04-05T06:51:18;2.63;;;1.80;;
23171;SDS011;11754;42.664;23.594;2023-04-05T06:53:44;2.40;;;1.80;;
23171;SDS011;11754;42.664;23.594;2023-04-05T06:56:09;3.80;;;1.80;;
23171;SDS011;11754;42.664;23.594;2023-04-05T06:58:35;6.22;;;2.08;;
23171;SDS011;11754;42.664;23.594;2023-04-05T07:01:01;3.20;;;1.70;;
23171;SDS011;11754;42.664;23.594;2023-04-05T07:03:27;2.70;;;1.45;;
23171;SDS011;11754;42.664;23.594;2023-04-05T07:05:54;4.47;;;1.40;;
23171;SDS011;11754;42.664;23.594;2023-04-05T07:08:21;1.85;;;1.58;;
23171;SDS011;11754;42.664;23.594;2023-04-05T07:10:47;6.22;;;1.60;;
23171;SDS011;11754;42.664;23.594;2023-04-05T07:13:14;4.05;;;1.80;;
23171;SDS011;11754;42.664;23.594;2023-04-05T07:15:41;7.38;;;1.70;;
23171;SDS011;11754;42.664;23.594;2023-04-05T07:18:08;3.60;;;1.50;;
23171;SDS011;11754;42.664;23.594;2023-04-05T07:20:33;2.78;;;2.00;;
23171;SDS011;11754;42.664;23.594;2023-04-05T07:22:59;3.08;;;1.63;;
23171;SDS011;11754;42.664;23.594;2023-04-05T07:25:24;2.22;;;1.45;;
23171;SDS011;11754;42.664;23.594;2023-04-05T07:27:50;2.60;;;1.50;;
23171;SDS011;11754;42.664;23.594;2023-04-05T07:30:16;3.95;;;2.75;;
23171;SDS011;11754;42.664;23.594;2023-04-05T07:32:42;9.43;;;5.78;;
23171;SDS011;11754;42.664;23.594;2023-04-05T07:35:08;6.25;;;2.70;;
23171;SDS011;11754;42.664;23.594;2023-04-05T07:37:33;5.82;;;1.95;;
23171;SDS011;11754;42.664;23.594;2023-04-05T07:40:00;5.80;;;2.10;;
23171;SDS011;11754;42.664;23.594;2023-04-05T07:42:25;6.60;;;1.92;;
23171;SDS011;11754;42.664;23.594;2023-04-05T07:44:52;4.75;;;1.80;;
23171;SDS011;11754;42.664;23.594;2023-04-05T07:47:18;2.83;;;1.70;;
23171;SDS011;11754;42.664;23.594;2023-04-05T07:49:43;5.13;;;1.58;;
23171;SDS011;11754;42.664;23.594;2023-04-05T07:52:09;4.25;;;1.48;;
23171;SDS011;11754;42.664;23.594;2023-04-05T07:54:35;5.22;;;2.15;;
23171;SDS011;11754;42.664;23.594;2023-04-05T07:57:10;3.38;;;1.60;;
23171;SDS011;11754;42.664;23.594;2023-04-05T07:59:40;3.28;;;1.70;;
23171;SDS011;11754;42.664;23.594;2023-04-05T08:02:06;3.90;;;1.80;;
23171;SDS011;11754;42.664;23.594;2023-04-05T08:04:31;5.93;;;1.40;;
23171;SDS011;11754;42.664;23.594;2023-04-05T08:06:57;2.08;;;1.35;;
23171;SDS011;11754;42.664;23.594;2023-04-05T08:09:22;3.53;;;1.30;;
23171;SDS011;11754;42.664;23.594;2023-04-05T08:11:47;4.72;;;1.20;;
23171;SDS011;11754;42.664;23.594;2023-04-05T08:14:13;4.05;;;1.52;;
23171;SDS011;11754;42.664;23.594;2023-04-05T08:16:38;4.22;;;1.33;;
23171;SDS011;11754;42.664;23.594;2023-04-05T08:19:04;2.30;;;1.35;;
23171;SDS011;11754;42.664;23.594;2023-04-05T08:21:29;2.13;;;1.20;;
23171;SDS011;11754;42.664;23.594;2023-04-05T08:23:56;8.35;;;2.33;;
23171;SDS011;11754;42.664;23.594;2023-04-05T08:26:22;2.00;;;1.30;;
23171;SDS011;11754;42.664;23.594;2023-04-05T08:28:48;4.30;;;1.73;;
23171;SDS011;11754;42.664;23.594;2023-04-05T08:31:13;6.30;;;1.40;;
23171;SDS011;11754;42.664;23.594;2023-04-05T08:33:38;4.43;;;1.30;;
23171;SDS011;11754;42.664;23.594;2023-04-05T08:36:04;2.13;;;1.40;;
23171;SDS011;11754;42.664;23.594;2023-04-05T08:38:33;1.95;;;1.17;;
23171;SDS011;11754;42.664;23.594;2023-04-05T08:41:18;3.28;;;1.15;;
23171;SDS011;11754;42.664;23.594;2023-04-05T08:43:53;1.45;;;1.10;;
23171;SDS011;11754;42.664;23.594;2023-04-05T08:46:23;1.30;;;1.00;;
23171;SDS011;11754;42.664;23.594;2023-04-05T08:48:50;9.35;;;5.72;;
23171;SDS011;11754;42.664;23.594;2023-04-05T08:51:21;7.07;;;4.60;;
23171;SDS011;11754;42.664;23.594;2023-04-05T08:53:48;2.45;;;1.27;;
23171;SDS011;11754;42.664;23.594;2023-04-05T08:56:14;3.05;;;1.40;;
23171;SDS011;11754;42.664;23.594;2023-04-05T08:58:45;4.22;;;1.27;;
23171;SDS011;11754;42.664;23.594;2023-04-05T09:01:25;2.10;;;1.35;;
23171;SDS011;11754;42.664;23.594;2023-04-05T09:03:53;3.42;;;1.10;;
23171;SDS011;11754;42.664;23.594;2023-04-05T09:06:21;2.30;;;1.40;;
23171;SDS011;11754;42.664;23.594;2023-04-05T09:08:52;6.93;;;1.20;;
23171;SDS011;11754;42.664;23.594;2023-04-05T09:11:19;2.60;;;1.67;;
23171;SDS011;11754;42.664;23.594;2023-04-05T09:13:44;8.98;;;5.22;;
23171;SDS011;11754;42.664;23.594;2023-04-05T09:16:10;14.15;;;11.73;;
23171;SDS011;11754;42.664;23.594;2023-04-05T09:18:45;9.60;;;5.72;;
23171;SDS011;11754;42.664;23.594;2023-04-05T09:21:10;24.92;;;14.35;;
23171;SDS011;11754;42.664;23.594;2023-04-05T09:23:37;34.63;;;24.05;;
23171;SDS011;11754;42.664;23.594;2023-04-05T09:26:18;21.70;;;17.05;;
23171;SDS011;11754;42.664;23.594;2023-04-05T09:28:47;2.42;;;1.90;;
23171;SDS011;11754;42.664;23.594;2023-04-05T09:34:05;4.10;;;1.88;;
23171;SDS011;11754;42.664;23.594;2023-04-05T09:36:51;1.85;;;1.27;;
23171;SDS011;11754;42.664;23.594;2023-04-05T09:39:16;2.30;;;1.20;;
23171;SDS011;11754;42.664;23.594;2023-04-05T09:42:03;2.95;;;1.40;;
23171;SDS011;11754;42.664;23.594;2023-04-05T09:44:57;2.72;;;1.70;;
23171;SDS011;11754;42.664;23.594;2023-04-05T09:47:29;2.58;;;1.50;;
23171;SDS011;11754;42.664;23.594;2023-04-05T09:49:57;1.98;;;1.55;;
23171;SDS011;11754;42.664;23.594;2023-04-05T09:52:24;2.25;;;1.67;;
23171;SDS011;11754;42.664;23.594;2023-04-05T09:54:54;3.25;;;1.52;;
23171;SDS011;11754;42.664;23.594;2023-04-05T09:57:24;6.28;;;1.98;;
23171;SDS011;11754;42.664;23.594;2023-04-05T09:59:54;2.28;;;1.83;;
23171;SDS011;11754;42.664;23.594;2023-04-05T10:02:20;3.17;;;1.60;;
23171;SDS011;11754;42.664;23.594;2023-04-05T10:04:46;3.40;;;1.63;;
23171;SDS011;11754;42.664;23.594;2023-04-05T10:07:13;2.35;;;1.70;;
23171;SDS011;11754;42.664;23.594;2023-04-05T10:09:42;2.55;;;1.90;;
23171;SDS011;11754;42.664;23.594;2023-04-05T10:12:11;5.65;;;1.70;;
23171;SDS011;11754;42.664;23.594;2023-04-05T10:14:49;2.60;;;1.85;;
23171;SDS011;11754;42.664;23.594;2023-04-05T10:22:37;2.95;;;2.17;;
23171;SDS011;11754;42.664;23.594;2023-04-05T10:28:05;4.10;;;2.35;;
23171;SDS011;11754;42.664;23.594;2023-04-05T10:30:38;4.75;;;2.08;;
23171;SDS011;11754;42.664;23.594;2023-04-05T10:40:52;3.90;;;1.95;;
23171;SDS011;11754;42.664;23.594;2023-04-05T10:43:20;2.25;;;1.65;;
23171;SDS011;11754;42.664;23.594;2023-04-05T10:45:51;3.63;;;1.80;;
23171;SDS011;11754;42.664;23.594;2023-04-05T10:48:20;2.53;;;1.92;;
23171;SDS011;11754;42.664;23.594;2023-04-05T10:50:55;6.88;;;2.28;;
23171;SDS011;11754;42.664;23.594;2023-04-05T10:53:23;2.97;;;2.13;;
23171;SDS011;11754;42.664;23.594;2023-04-05T10:55:49;2.47;;;2.20;;
23171;SDS011;11754;42.664;23.594;2023-04-05T10:58:16;3.92;;;2.70;;
23171;SDS011;11754;42.664;23.594;2023-04-05T11:00:42;3.70;;;2.40;;
23171;SDS011;11754;42.664;23.594;2023-04-05T11:03:21;9.38;;;3.45;;
23171;SDS011;11754;42.664;23.594;2023-04-05T11:08:48;6.07;;;3.40;;
23171;SDS011;11754;42.664;23.594;2023-04-05T11:11:16;5.03;;;2.33;;
23171;SDS011;11754;42.664;23.594;2023-04-05T11:13:53;3.03;;;2.05;;
23171;SDS011;11754;42.664;23.594;2023-04-05T11:16:37;3.72;;;1.88;;
23171;SDS011;11754;42.664;23.594;2023-04-05T11:19:03;2.72;;;1.90;;
23171;SDS011;11754;42.664;23.594;2023-04-05T11:21:29;4.22;;;2.40;;
23171;SDS011;11754;42.664;23.594;2023-04-05T11:24:05;3.50;;;2.72;;
23171;SDS011;11754;42.664;23.594;2023-04-05T11:29:04;3.40;;;2.53;;
23171;SDS011;11754;42.664;23.594;2023-04-05T11:31:30;4.53;;;2.40;;
23171;SDS011;11754;42.664;23.594;2023-04-05T11:33:56;6.88;;;2.28;;
23171;SDS011;11754;42.664;23.594;2023-04-05T11:41:43;2.25;;;1.98;;
23171;SDS011;11754;42.664;23.594;2023-04-05T11:44:13;2.10;;;1.83;;
23171;SDS011;11754;42.664;23.594;2023-04-05T11:49:09;2.85;;;1.92;;
23171;SDS011;11754;42.664;23.594;2023-04-05T11:51:38;4.30;;;2.30;;
23171;SDS011;11754;42.664;23.594;2023-04-05T11:54:06;2.50;;;2.00;;
23171;SDS011;11754;42.664;23.594;2023-04-05T11:56:32;1.70;;;1.60;;
23171;SDS011;11754;42.664;23.594;2023-04-05T11:58:58;2.97;;;1.60;;
23171;SDS011;11754;42.664;23.594;2023-04-05T12:01:24;4.18;;;2.00;;
23171;SDS011;11754;42.664;23.594;2023-04-05T12:03:53;2.95;;;1.88;;
23171;SDS011;11754;42.664;23.594;2023-04-05T12:06:23;2.20;;;1.83;;
23171;SDS011;11754;42.664;23.594;2023-04-05T12:08:50;2.50;;;1.80;;
23171;SDS011;11754;42.664;23.594;2023-04-05T12:11:23;4.25;;;2.00;;
23171;SDS011;11754;42.664;23.594;2023-04-05T12:13:54;3.75;;;1.90;;
23171;SDS011;11754;42.664;23.594;2023-04-05T12:16:22;2.55;;;2.28;;
23171;SDS011;11754;42.664;23.594;2023-04-05T12:18:58;3.75;;;2.40;;
23171;SDS011;11754;42.664;23.594;2023-04-05T12:21:24;3.03;;;2.30;;
23171;SDS011;11754;42.664;23.594;2023-04-05T12:23:51;3.70;;;2.60;;
23171;SDS011;11754;42.664;23.594;2023-04-05T12:26:17;2.90;;;2.45;;
23171;SDS011;11754;42.664;23.594;2023-04-05T12:34:08;7.43;;;3.50;;
23171;SDS011;11754;42.664;23.594;2023-04-05T12:36:34;3.42;;;3.13;;
23171;SDS011;11754;42.664;23.594;2023-04-05T12:39:00;7.57;;;3.50;;
23171;SDS011;11754;42.664;23.594;2023-04-05T12:41:31;3.63;;;3.30;;
23171;SDS011;11754;42.664;23.594;2023-04-05T12:43:58;6.78;;;3.63;;
23171;SDS011;11754;42.664;23.594;2023-04-05T12:49:27;4.05;;;3.65;;
23171;SDS011;11754;42.664;23.594;2023-04-05T12:51:53;6.80;;;3.90;;
23171;SDS011;11754;42.664;23.594;2023-04-05T12:54:21;4.05;;;3.63;;
23171;SDS011;11754;42.664;23.594;2023-04-05T12:56:53;7.60;;;4.40;;
23171;SDS011;11754;42.664;23.594;2023-04-05T12:59:20;7.43;;;4.22;;
23171;SDS011;11754;42.664;23.594;2023-04-05T13:01:46;7.72;;;5.38;;
23171;SDS011;11754;42.664;23.594;2023-04-05T13:04:11;6.60;;;5.40;;
23171;SDS011;11754;42.664;23.594;2023-04-05T13:06:36;5.47;;;4.55;;
23171;SDS011;11754;42.664;23.594;2023-04-05T13:09:02;4.90;;;4.50;;
23171;SDS011;11754;42.664;23.594;2023-04-05T13:11:28;7.05;;;4.68;;
23171;SDS011;11754;42.664;23.594;2023-04-05T13:13:53;5.45;;;4.95;;
23171;SDS011;11754;42.664;23.594;2023-04-05T13:16:19;10.52;;;4.72;;
23171;SDS011;11754;42.664;23.594;2023-04-05T13:18:44;6.63;;;3.95;;
23171;SDS011;11754;42.664;23.594;2023-04-05T13:21:10;6.00;;;4.00;;
23171;SDS011;11754;42.664;23.594;2023-04-05T13:23:36;3.97;;;3.58;;
23171;SDS011;11754;42.664;23.594;2023-04-05T13:26:03;4.50;;;3.70;;
23171;SDS011;11754;42.664;23.594;2023-04-05T13:28:29;6.47;;;3.60;;
23171;SDS011;11754;42.664;23.594;2023-04-05T13:30:55;3.83;;;3.00;;
23171;SDS011;11754;42.664;23.594;2023-04-05T13:33:20;4.93;;;3.25;;
23171;SDS011;11754;42.664;23.594;2023-04-05T13:35:46;8.13;;;3.83;;
23171;SDS011;11754;42.664;23.594;2023-04-05T13:38:11;5.15;;;3.65;;
23171;SDS011;11754;42.664;23.594;2023-04-05T13:40:37;4.18;;;3.30;;
23171;SDS011;11754;42.664;23.594;2023-04-05T13:43:03;3.65;;;3.35;;
23171;SDS011;11754;42.664;23.594;2023-04-05T13:45:28;3.42;;;2.83;;
23171;SDS011;11754;42.664;23.594;2023-04-05T13:47:55;10.18;;;3.33;;
23171;SDS011;11754;42.664;23.594;2023-04-05T13:50:21;3.47;;;2.72;;
23171;SDS011;11754;42.664;23.594;2023-04-05T13:52:47;6.97;;;3.10;;
23171;SDS011;11754;42.664;23.594;2023-04-05T13:55:13;5.97;;;3.88;;
23171;SDS011;11754;42.664;23.594;2023-04-05T13:57:38;8.30;;;4.07;;
23171;SDS011;11754;42.664;23.594;2023-04-05T14:00:04;3.90;;;3.40;;
23171;SDS011;11754;42.664;23.594;2023-04-05T14:02:30;3.97;;;3.25;;
23171;SDS011;11754;42.664;23.594;2023-04-05T14:04:55;6.07;;;4.10;;
23171;SDS011;11754;42.664;23.594;2023-04-05T14:07:21;5.53;;;3.40;;
23171;SDS011;11754;42.664;23.594;2023-04-05T14:09:47;3.85;;;3.47;;
23171;SDS011;11754;42.664;23.594;2023-04-05T14:12:13;5.25;;;4.10;;
23171;SDS011;11754;42.664;23.594;2023-04-05T14:14:38;5.88;;;3.65;;
23171;SDS011;11754;42.664;23.594;2023-04-05T14:17:03;4.30;;;3.90;;
23171;SDS011;11754;42.664;23.594;2023-04-05T14:19:30;4.97;;;3.40;;
23171;SDS011;11754;42.664;23.594;2023-04-05T14:21:55;4.25;;;2.85;;
23171;SDS011;11754;42.664;23.594;2023-04-05T14:24:21;4.13;;;3.22;;
23171;SDS011;11754;42.664;23.594;2023-04-05T14:26:46;2.90;;;2.60;;
23171;SDS011;11754;42.664;23.594;2023-04-05T14:29:17;7.22;;;3.00;;
23171;SDS011;11754;42.664;23.594;2023-04-05T14:31:43;3.45;;;3.15;;
23171;SDS011;11754;42.664;23.594;2023-04-05T14:34:09;3.30;;;3.00;;
23171;SDS011;11754;42.664;23.594;2023-04-05T14:36:35;3.13;;;2.83;;
23171;SDS011;11754;42.664;23.594;2023-04-05T14:39:00;3.42;;;3.00;;
23171;SDS011;11754;42.664;23.594;2023-04-05T14:41:26;3.58;;;2.88;;
23171;SDS011;11754;42.664;23.594;2023-04-05T14:43:51;4.07;;;3.38;;
23171;SDS011;11754;42.664;23.594;2023-04-05T14:46:17;5.25;;;3.70;;
23171;SDS011;11754;42.664;23.594;2023-04-05T14:48:43;5.05;;;3.55;;
23171;SDS011;11754;42.664;23.594;2023-04-05T14:51:09;6.35;;;3.85;;
23171;SDS011;11754;42.664;23.594;2023-04-05T14:53:34;4.70;;;3.75;;
23171;SDS011;11754;42.664;23.594;2023-04-05T14:56:00;5.95;;;4.45;;
23171;SDS011;11754;42.664;23.594;2023-04-05T14:58:25;8.45;;;4.20;;
23171;SDS011;11754;42.664;23.594;2023-04-05T15:00:53;7.68;;;5.47;;
23171;SDS011;11754;42.664;23.594;2023-04-05T15:03:18;7.93;;;4.70;;
23171;SDS011;11754;42.664;23.594;2023-04-05T15:05:45;4.82;;;4.40;;
23171;SDS011;11754;42.664;23.594;2023-04-05T15:08:11;5.85;;;4.38;;
23171;SDS011;11754;42.664;23.594;2023-04-05T15:10:37;5.95;;;5.20;;
23171;SDS011;11754;42.664;23.594;2023-04-05T15:13:03;5.65;;;5.03;;
23171;SDS011;11754;42.664;23.594;2023-04-05T15:15:28;5.72;;;5.15;;
23171;SDS011;11754;42.664;23.594;2023-04-05T15:17:55;6.20;;;5.60;;
23171;SDS011;11754;42.664;23.594;2023-04-05T15:20:20;7.10;;;6.07;;
23171;SDS011;11754;42.664;23.594;2023-04-05T15:22:45;8.55;;;6.45;;
23171;SDS011;11754;42.664;23.594;2023-04-05T15:25:11;8.00;;;6.68;;